Aquidauana, Brazil
Current Conditions -  °F | °C
As of 5:00 PM on Monday 22 Dec 2014 (Local Time) from SBCG Reporting Station
Broken Clouds Broken Clouds  
Wind Chill: 72°   Ceiling: 200
Heat Index: 72°   Visibility: 6mi
Dew Point: 70°   Wind: 13mph
Humidity: 94%   Direction: 310°NW
Pressure: 29.83"   Gusts: NA
Location:  20.47°S, 55.79°W
Report Text: SBCG 222000Z 31011KT 9999 BKN002 SCT006 FEW040TCU 22/21 Q1010
Loading
Personal Weather Stations






























Interactive Weather Map New forecast layout! Learn more

10-Day Weather Forecast

Advertisements
Track Severe Weather on mobile